WEATHER DATA

YESTERDAY
Time Temp. Dewp. Hum. Bar. 1h Prec. 24h Prec.
00:03 -1 -4.1 77 1014.8 0.0000 0.0000
00:13 -1.1 -4.1 78 1014.6 0.0000 0.0000
00:23 -1.2 -4.2 78 1014.7 0.0000 0.0000
00:44 -1.3 -4.3 78 1014.8 0.0000 0.0000
00:53 -1.4 -4.4 78 1014.7 0.0000 0.0000
01:04 -1.5 -4.5 78 1014.6 0.0000 0.0000
01:14 -1.6 -4.5 78 1014.5 0.0000 0.0000
01:24 -1.6 -4.4 79 1014.6 0.0000 0.0000
01:34 -1.7 -4.5 79 1014.7 0.0000 0.0000
01:44 -1.7 -4.5 79 1014.6 0.0000 0.0000
01:54 -1.8 -4.6 79 1014.6 0.0000 0.0000
02:04 -1.8 -4.6 79 1014.6 0.0000 0.0000
02:15 -1.9 -4.7 79 1014.5 0.0000 0.0000
02:25 -2 -4.8 79 1014.1 0.0000 0.0000
02:34 -2 -4.6 80 1014 0.0000 0.0000
02:44 -2.1 -4.7 80 1014.1 0.0000 0.0000
02:55 -2.1 -4.7 80 1014 0.0000 0.0000
03:05 -2.1 -4.9 79 1013.9 0.0000 0.0000
03:15 -2.2 -4.8 80 1013.9 0.0000 0.0000
03:25 -2.2 -4.8 80 1013.8 0.0000 0.0000
03:35 -2.3 -4.9 80 1013.8 0.0000 0.0000
03:45 -2.3 -4.9 80 1013.8 0.0000 0.0000
03:55 -2.3 -4.9 80 1013.7 0.0000 0.0000
04:06 -2.4 -5 80 1013.8 0.0000 0.0000
04:15 -2.5 -5.1 80 1013.9 0.0000 0.0000
04:25 -2.5 -5.1 80 1013.9 0.0000 0.0000
04:36 -2.6 -5.2 80 1014 0.0000 0.0000
04:46 -2.6 -5.1 81 1013.9 0.0000 0.0000
04:56 -2.7 -5.3 80 1013.9 0.0000 0.0000
05:05 -2.7 -5.3 80 1014.1 0.0000 0.0000
05:16 -2.8 -5.3 81 1014 0.0000 0.0000
05:26 -2.8 -5.3 81 1014.1 0.0000 0.0000
05:36 -2.9 -5.4 81 1014.2 0.0000 0.0000
05:46 -2.9 -5.4 81 1014.2 0.0000 0.0000
05:56 -3 -5.5 81 1014.2 0.0000 0.0000
06:06 -3 -5.5 81 1014.4 0.0000 0.0000
06:16 -3 -5.5 81 1014.3 0.0000 0.0000
06:27 -3.1 -5.6 81 1014.2 0.0000 0.0000
06:37 -3.1 -5.6 81 1014.3 0.0000 0.0000
06:47 -3.2 -5.7 81 1014.4 0.0000 0.0000
06:56 -3.3 -5.8 81 1014.5 0.0000 0.0000
07:07 -3.3 -5.8 81 1014.3 0.0000 0.0000
07:17 -3.4 -5.9 81 1014.4 0.0000 0.0000
07:27 -3.4 -5.9 81 1014.7 0.0000 0.0000
07:37 -3.5 -6 81 1014.7 0.0000 0.0000
07:47 -3.5 -6 81 1014.7 0.0000 0.0000
07:57 -3.5 -6 81 1014.9 0.0000 0.0000
08:07 -3.5 -6 81 1014.9 0.0000 0.0000
08:18 -3.5 -5.8 82 1014.7 0.0000 0.0000
08:28 -3.5 -6 81 1014.8 0.0000 0.0000
08:37 -3.4 -5.9 81 1014.9 0.0000 0.0000
08:48 -3.3 -5.8 81 1015.2 0.0000 0.0000
08:58 -3.2 -5.7 81 1015 0.0000 0.0000
09:08 -3.1 -5.6 81 1015 0.0000 0.0000
09:18 -3 -5.3 82 1015.1 0.0000 0.0000
09:29 -2.8 -5.3 81 1015 0.0000 0.0000
09:38 -2.7 -5.2 81 1015 0.0000 0.0000
09:48 -2.5 -5 81 1015.1 0.0000 0.0000
09:58 -2.3 -4.9 80 1015.2 0.0000 0.0000
10:09 -2.1 -4.7 80 1015.2 0.0000 0.0000
10:19 -2 -4.6 80 1015.1 0.0000 0.0000
10:31 -1.8 -4.6 79 1015.3 0.0000 0.0000
10:39 -1.6 -4.4 79 1015.3 0.0000 0.0000
10:50 -1.4 -4.2 79 1015.4 0.0000 0.0000
11:00 -1.3 -4.1 79 1015.4 0.0000 0.0000
11:10 -1.1 -4.1 78 1015.4 0.0000 0.0000
11:20 -0.9 -3.9 78 1015.4 0.0000 0.0000
11:30 -0.6 -3.6 78 1015.4 0.0000 0.0000
11:40 -0.5 -3.6 77 1015.3 0.0000 0.0000
11:50 -0.3 -3.4 77 1015.4 0.0000 0.0000
12:01 0 -3.1 77 1015.2 0.0000 0.0000
12:10 0.1 -3.4 75 1015.3 0.0000 0.0000
12:20 0.3 -3.3 74 1015.3 0.0000 0.0000
12:31 0.5 -3.3 73 1015.1 0.0000 0.0000
12:41 0.7 -3.2 73 1015.1 0.0000 0.0000
12:51 0.9 -3.2 72 1015.1 0.0000 0.0000
13:01 1.1 -3.2 71 1015 0.0000 0.0000
13:12 1.2 -3.2 70 1015 0.0000 0.0000
13:22 1.4 -3.2 69 1015 0.0000 0.0000
13:31 1.5 -3.2 69 1015.1 0.0000 0.0000
13:41 1.7 -3 69 1015.3 0.0000 0.0000
13:52 1.8 -3.4 66 1015.3 0.0000 0.0000
14:02 1.9 -3.2 67 1015.2 0.0000 0.0000
14:12 2 -3.1 67 1015.2 0.0000 0.0000
14:22 2.1 -3 67 1015.3 0.0000 0.0000
14:32 2.2 -3.3 65 1015.3 0.0000 0.0000
14:42 2.3 -3 66 1015.6 0.0000 0.0000
14:52 2.3 -3.7 62 1015.5 0.0000 0.0000
15:03 2.3 -3.4 64 1015.6 0.0000 0.0000
15:12 2.4 -3.3 64 1015.7 0.0000 0.0000
15:22 2.4 -3.8 61 1015.7 0.0000 0.0000
15:33 2.4 -3.7 62 1015.8 0.0000 0.0000
15:43 2.5 -4 60 1015.7 0.0000 0.0000
15:53 2.5 -4 60 1015.7 0.0000 0.0000
16:02 2.5 -4.2 59 1015.9 0.0000 0.0000
16:13 2.5 -4.4 58 1015.9 0.0000 0.0000
16:23 2.5 -4 60 1016.2 0.0000 0.0000
16:33 2.4 -4.2 59 1016.2 0.0000 0.0000
16:43 2.4 -4.2 59 1016.2 0.0000 0.0000
16:54 2.3 -4.3 59 1016.3 0.0000 0.0000
17:03 2.2 -4 61 1016.4 0.0000 0.0000
17:13 2.1 -4.1 61 1016.5 0.0000 0.0000
17:24 2 -4.4 60 1016.4 0.0000 0.0000
17:34 1.8 -4.2 62 1016.6 0.0000 0.0000
17:44 1.7 -4.4 61 1016.7 0.0000 0.0000
17:53 1.6 -4.1 63 1016.7 0.0000 0.0000
18:04 1.4 -4.1 64 1016.8 0.0000 0.0000
18:14 1.2 -4.3 64 1016.9 0.0000 0.0000
18:24 1.1 -4.4 64 1017 0.0000 0.0000
18:35 0.9 -4.4 65 1017.1 0.0000 0.0000
18:44 0.8 -4.5 65 1017.1 0.0000 0.0000
18:54 0.6 -4.4 66 1017.1 0.0000 0.0000
19:04 0.5 -4.7 65 1017.2 0.0000 0.0000
19:15 0.4 -4.6 66 1017.3 0.0000 0.0000
19:25 0.3 -4.7 66 1017.3 0.0000 0.0000
19:34 0.3 -4.7 66 1017.3 0.0000 0.0000
19:45 0.2 -4.8 66 1017.5 0.0000 0.0000
19:55 0.1 -4.5 68 1017.4 0.0000 0.0000
20:05 0 -4.6 68 1017.5 0.0000 0.0000
20:15 0 -4.6 68 1017.4 0.0000 0.0000
20:26 -0.1 -4.5 69 1017.5 0.0000 0.0000
20:35 -0.2 -4.6 69 1017.5 0.0000 0.0000
20:45 -0.2 -4.6 69 1017.6 0.0000 0.0000
20:55 -0.3 -4.6 70 1017.7 0.0000 0.0000
21:06 -0.4 -4.6 70 1017.7 0.0000 0.0000
21:16 -0.5 -4.7 70 1017.7 0.0000 0.0000
21:25 -0.6 -4.8 70 1017.8 0.0000 0.0000
21:36 -0.7 -4.9 70 1017.9 0.0000 0.0000
21:46 -0.8 -5 70 1018 0.0000 0.0000
21:56 -0.9 -5.1 70 1018.1 0.0000 0.0000
22:06 -0.9 -5.1 70 1018.1 0.0000 0.0000
22:16 -1 -5.4 69 1018 0.0000 0.0000
22:26 -1.1 -5.5 69 1018.2 0.0000 0.0000
22:36 -1.2 -5.6 69 1018.2 0.0000 0.0000
22:47 -1.3 -5.5 70 1018.3 0.0000 0.0000
22:57 -1.4 -5.6 70 1018.2 0.0000 0.0000
23:07 -1.5 -5.7 70 1018.3 0.0000 0.0000
23:16 -1.5 -5.7 70 1018.5 0.0000 0.0000
23:27 -1.6 -5.8 70 1018.6 0.0000 0.0000
23:37 -1.7 -6.1 69 1018.5 0.0000 0.0000
23:47 -1.8 -6 70 1018.6 0.0000 0.0000
23:57 -1.9 -6.1 70 1018.6 0.0000

DAY STATISTICS

2018-02-24
TEMPERATURE
AVERAGE
-0.8
HIGH
2.5
15:43
LOW
-3.5
07:37
PRESSURE
AVERAGE
1015.7
HIGH
1018.6
23:27
LOW
1013.7
03:55
DEWPOINT
AVERAGE
-4.6
HIGH
-3.0
13:41
LOW
-6.1
23:37
HUMIDITY
AVERAGE
73
HIGH
82
08:18
LOW
58
16:13
PRECIPITATION
RAIN HOUR
0.0
RAIN DAY
0.0
TEMPERATURE (°C)
LOW
-3.5
HIGH
2.5
AVERAGE
-0.8
PRESSURE (hpa)
LOW
1013.7
HIGH
1018.6
AVERAGE
1015.7
DEVICE